createdAt,value
2022-08-05T00:01:28.438Z,22.40
2022-08-05T00:03:56.767Z,22.40
2022-08-05T00:06:32.391Z,22.30
2022-08-05T00:09:03.518Z,22.20
2022-08-05T00:11:34.793Z,22.20
2022-08-05T00:14:13.085Z,22.30
2022-08-05T00:16:52.637Z,22.40
2022-08-05T00:19:24.856Z,22.50
2022-08-05T00:21:59.868Z,22.80
2022-08-05T00:24:30.679Z,22.90
2022-08-05T00:26:59.487Z,23.00
2022-08-05T00:29:26.238Z,23.10
2022-08-05T00:32:12.142Z,23.10
2022-08-05T00:34:56.931Z,23.10
2022-08-05T00:37:35.591Z,23.20
2022-08-05T00:40:17.904Z,23.20
2022-08-05T00:42:54.863Z,23.20
2022-08-05T00:45:37.899Z,23.30
2022-08-05T00:48:10.010Z,23.20
2022-08-05T00:50:37.356Z,23.20
2022-08-05T00:53:09.728Z,23.20
2022-08-05T00:55:50.995Z,23.10
2022-08-05T00:58:19.188Z,23.10
2022-08-05T01:00:46.278Z,23.10
2022-08-05T01:03:22.776Z,23.00
2022-08-05T01:05:54.634Z,23.00
2022-08-05T01:08:39.200Z,23.00
2022-08-05T01:11:13.666Z,23.00
2022-08-05T01:13:57.391Z,22.90
2022-08-05T01:16:28.624Z,22.80
2022-08-05T01:19:00.884Z,22.80
2022-08-05T01:21:38.010Z,22.70
2022-08-05T01:24:14.339Z,22.60
2022-08-05T01:26:51.175Z,22.60
2022-08-05T01:29:23.229Z,22.60
2022-08-05T01:31:52.612Z,22.60
2022-08-05T01:34:26.701Z,22.50
2022-08-05T01:37:00.461Z,22.50
2022-08-05T01:39:45.630Z,22.60
2022-08-05T01:42:15.332Z,22.50
2022-08-05T01:44:43.012Z,22.50
2022-08-05T01:47:12.645Z,22.40
2022-08-05T01:50:00.438Z,22.40
2022-08-05T01:52:27.655Z,22.40
2022-08-05T01:54:56.676Z,22.40
2022-08-05T01:58:10.383Z,22.30
2022-08-05T02:00:15.082Z,22.20
2022-08-05T02:02:51.086Z,22.10
2022-08-05T02:05:23.561Z,22.00
2022-08-05T02:08:00.076Z,22.00
2022-08-05T02:10:30.814Z,21.90
2022-08-05T02:13:01.758Z,21.90
2022-08-05T02:15:35.428Z,22.00
2022-08-05T02:18:31.562Z,22.00
2022-08-05T02:20:58.879Z,22.10
2022-08-05T02:23:28.963Z,22.10
2022-08-05T02:26:02.189Z,22.00
2022-08-05T02:28:33.110Z,22.00
2022-08-05T02:31:06.015Z,21.90
2022-08-05T02:33:38.773Z,22.00
2022-08-05T02:36:09.321Z,22.00
2022-08-05T02:38:37.404Z,22.00
2022-08-05T02:41:14.798Z,22.00
2022-08-05T02:44:02.762Z,22.10
2022-08-05T02:46:33.243Z,22.10
2022-08-05T02:49:01.900Z,22.00
2022-08-05T02:52:04.380Z,21.90
2022-08-05T02:54:36.170Z,21.90
2022-08-05T02:57:03.762Z,21.90
2022-08-05T02:59:47.775Z,21.90
2022-08-05T03:02:15.867Z,21.90
2022-08-05T03:04:43.671Z,21.90
2022-08-05T03:07:40.662Z,21.70
2022-08-05T03:09:57.344Z,21.60
2022-08-05T03:12:37.313Z,21.60
2022-08-05T03:15:09.184Z,21.50
2022-08-05T03:17:41.948Z,21.40
2022-08-05T03:20:11.681Z,21.40
2022-08-05T03:22:44.213Z,21.40
2022-08-05T03:25:34.093Z,21.30
2022-08-05T03:28:05.572Z,21.30
2022-08-05T03:30:34.237Z,21.30
2022-08-05T03:33:01.690Z,21.40
2022-08-05T03:35:28.673Z,21.30
2022-08-05T03:37:59.011Z,21.20
2022-08-05T03:40:31.870Z,21.20
2022-08-05T03:42:59.611Z,21.10
2022-08-05T03:45:57.694Z,21.00
2022-08-05T03:48:26.840Z,21.00
2022-08-05T03:52:35.338Z,20.90
2022-08-05T03:55:07.137Z,20.80
2022-08-05T03:56:46.517Z,20.70
2022-08-05T03:59:29.218Z,20.60
2022-08-05T04:02:15.021Z,20.60
2022-08-05T04:04:44.790Z,20.60
2022-08-05T04:07:11.584Z,20.70
2022-08-05T04:09:53.741Z,20.70
2022-08-05T04:12:24.363Z,20.60
2022-08-05T04:14:51.973Z,20.50
2022-08-05T04:17:18.799Z,20.50
2022-08-05T04:19:46.880Z,20.50
2022-08-05T04:22:21.378Z,20.50
2022-08-05T04:24:52.475Z,20.50
2022-08-05T04:27:19.762Z,20.60
2022-08-05T04:30:07.291Z,20.50
2022-08-05T04:32:34.057Z,20.70
2022-08-05T04:35:03.463Z,20.80
2022-08-05T04:38:02.181Z,21.00
2022-08-05T04:40:19.789Z,21.10
2022-08-05T04:42:46.542Z,21.10
2022-08-05T04:45:14.204Z,21.20
2022-08-05T04:48:16.449Z,21.20
2022-08-05T04:51:03.547Z,21.40
2022-08-05T04:53:38.910Z,21.50
2022-08-05T04:56:33.408Z,21.70
2022-08-05T04:58:55.542Z,21.80
2022-08-05T05:02:04.131Z,21.90
2022-08-05T05:04:09.687Z,21.90
2022-08-05T05:06:44.541Z,22.00
2022-08-05T05:09:17.712Z,22.00
2022-08-05T05:11:54.079Z,22.00
2022-08-05T05:14:27.928Z,22.00
2022-08-05T05:17:01.794Z,22.00
2022-08-05T05:19:36.908Z,22.00
2022-08-05T05:22:24.283Z,22.20
2022-08-05T05:24:57.302Z,22.30
2022-08-05T05:27:44.969Z,22.30
2022-08-05T05:30:31.305Z,22.40
2022-08-05T05:33:03.477Z,22.50
2022-08-05T05:35:42.442Z,22.60
2022-08-05T05:38:13.383Z,22.70
2022-08-05T05:40:48.081Z,22.70
2022-08-05T05:43:28.114Z,22.60
2022-08-05T05:46:10.634Z,22.60
2022-08-05T05:48:44.424Z,22.60
2022-08-05T05:51:15.414Z,22.60
2022-08-05T05:53:54.423Z,22.60
2022-08-05T05:56:33.047Z,22.60
2022-08-05T05:59:06.407Z,22.70
2022-08-05T06:01:37.934Z,22.70
2022-08-05T06:04:12.175Z,22.80
2022-08-05T06:06:41.667Z,22.80
2022-08-05T06:09:08.795Z,22.80
2022-08-05T06:11:35.608Z,22.80
2022-08-05T06:14:06.053Z,22.90
2022-08-05T06:16:37.117Z,23.00
2022-08-05T06:19:05.617Z,23.00
2022-08-05T06:21:36.457Z,23.10
2022-08-05T06:24:05.997Z,23.30
2022-08-05T06:26:35.107Z,23.50
2022-08-05T06:29:03.354Z,23.80
2022-08-05T06:31:33.680Z,24.10
2022-08-05T06:34:06.334Z,24.30
2022-08-05T06:36:55.291Z,24.20
2022-08-05T06:39:21.876Z,24.20
2022-08-05T06:41:51.199Z,24.30
2022-08-05T06:44:18.842Z,24.40
2022-08-05T06:46:50.895Z,24.30
2022-08-05T06:49:18.795Z,24.50
2022-08-05T06:51:48.000Z,24.70
2022-08-05T06:54:18.929Z,24.90
2022-08-05T06:56:54.840Z,25.10
2022-08-05T06:59:38.468Z,25.30
2022-08-05T07:02:05.823Z,25.40
2022-08-05T07:04:32.443Z,25.30
2022-08-05T07:07:00.051Z,25.10
2022-08-05T07:09:26.815Z,24.90
2022-08-05T07:12:00.436Z,24.90
2022-08-05T07:14:46.124Z,25.00
2022-08-05T07:17:58.903Z,25.00
2022-08-05T07:22:47.831Z,25.10
2022-08-05T07:25:54.320Z,25.20
2022-08-05T07:28:05.768Z,25.30
2022-08-05T07:30:38.824Z,25.40
2022-08-05T07:33:10.010Z,25.60
2022-08-05T07:36:02.114Z,25.80
2022-08-05T07:38:34.291Z,25.90
2022-08-05T07:41:35.152Z,26.10
2022-08-05T07:43:50.281Z,26.30
2022-08-05T07:46:23.502Z,26.30
2022-08-05T07:49:02.945Z,26.30
2022-08-05T07:51:36.306Z,26.30
2022-08-05T07:54:04.817Z,26.10
2022-08-05T07:57:02.476Z,25.90
2022-08-05T07:59:23.319Z,25.70
2022-08-05T08:02:05.145Z,25.60
2022-08-05T08:04:37.450Z,25.50
2022-08-05T08:07:07.081Z,25.50
2022-08-05T08:09:34.909Z,25.60
2022-08-05T08:12:11.195Z,25.70
2022-08-05T08:14:46.801Z,25.80
2022-08-05T08:17:16.166Z,25.80
2022-08-05T08:20:44.174Z,25.90
2022-08-05T08:22:30.521Z,26.00
2022-08-05T08:25:03.190Z,26.10
2022-08-05T08:27:40.213Z,26.20
2022-08-05T08:30:20.181Z,26.30
2022-08-05T08:33:02.389Z,26.30
2022-08-05T08:35:34.696Z,26.40
2022-08-05T08:38:01.997Z,26.50
2022-08-05T08:40:29.133Z,26.60
2022-08-05T08:42:56.615Z,26.70
2022-08-05T08:45:27.024Z,26.50
2022-08-05T08:48:11.293Z,26.60
2022-08-05T08:51:03.318Z,26.60
2022-08-05T08:53:35.703Z,26.60
2022-08-05T08:56:05.987Z,26.90
2022-08-05T08:58:44.014Z,27.00
2022-08-05T09:01:16.391Z,27.00
2022-08-05T09:03:45.743Z,26.80
2022-08-05T09:06:16.977Z,26.80
2022-08-05T09:08:46.762Z,27.00
2022-08-05T09:11:14.881Z,27.20
2022-08-05T09:14:09.555Z,26.90
2022-08-05T09:16:29.904Z,26.80
2022-08-05T09:18:56.775Z,27.00
2022-08-05T09:22:23.109Z,26.90
2022-08-05T09:24:15.544Z,27.00
2022-08-05T09:26:46.178Z,27.00
2022-08-05T09:29:17.609Z,27.20
2022-08-05T09:32:46.102Z,27.40
2022-08-05T09:34:48.678Z,27.80
2022-08-05T09:37:17.286Z,28.30
2022-08-05T09:40:04.634Z,28.60
2022-08-05T09:42:39.277Z,28.60
2022-08-05T09:46:05.069Z,28.70
2022-08-05T09:47:56.270Z,28.90
2022-08-05T09:50:38.497Z,28.70
2022-08-05T09:53:17.136Z,28.20
2022-08-05T09:55:56.848Z,28.10
2022-08-05T09:58:26.803Z,28.00
2022-08-05T10:01:00.744Z,28.20
2022-08-05T10:03:45.332Z,28.30
2022-08-05T10:06:19.355Z,28.20
2022-08-05T10:08:50.340Z,28.40
2022-08-05T10:11:22.833Z,28.70
2022-08-05T10:13:50.000Z,28.60
2022-08-05T10:16:30.146Z,28.60
2022-08-05T10:18:57.092Z,28.40
2022-08-05T10:21:24.116Z,29.00
2022-08-05T10:23:59.087Z,29.20
2022-08-05T10:26:31.737Z,29.20
2022-08-05T10:29:00.830Z,29.20
2022-08-05T10:32:52.565Z,29.60
2022-08-05T10:34:14.392Z,30.00
2022-08-05T10:36:44.157Z,30.10
2022-08-05T10:39:59.311Z,29.80
2022-08-05T10:42:22.824Z,30.10
2022-08-05T10:45:01.082Z,30.30
2022-08-05T10:47:32.815Z,30.00
2022-08-05T10:50:32.695Z,29.70
2022-08-05T10:52:52.435Z,29.60
2022-08-05T10:55:25.946Z,29.70
2022-08-05T10:58:09.328Z,30.00
2022-08-05T11:00:45.664Z,30.10
2022-08-05T11:03:25.226Z,30.20
2022-08-05T11:06:04.254Z,30.50
2022-08-05T11:08:37.097Z,30.80
2022-08-05T11:11:23.344Z,30.70
2022-08-05T11:14:00.628Z,30.90
2022-08-05T11:16:33.814Z,30.90
2022-08-05T11:20:10.111Z,30.90
2022-08-05T11:22:29.626Z,30.70
2022-08-05T11:25:16.831Z,30.40
2022-08-05T11:28:17.174Z,30.40
2022-08-05T11:31:06.209Z,30.60
2022-08-05T11:33:43.735Z,30.90
2022-08-05T11:36:14.585Z,31.10
2022-08-05T11:38:45.272Z,31.50
2022-08-05T11:41:56.525Z,31.50
2022-08-05T11:44:12.714Z,31.90
2022-08-05T11:47:10.933Z,32.00
2022-08-05T11:49:39.212Z,32.10
2022-08-05T11:52:11.945Z,32.50
2022-08-05T11:54:41.532Z,32.80
2022-08-05T11:57:25.066Z,33.50
2022-08-05T11:59:53.048Z,33.50
2022-08-05T12:02:30.022Z,33.40
2022-08-05T12:04:59.629Z,33.50
2022-08-05T12:08:08.520Z,33.70
2022-08-05T12:10:18.103Z,33.70
2022-08-05T12:12:58.292Z,33.20
2022-08-05T12:15:37.955Z,32.90
2022-08-05T12:18:11.073Z,33.20
2022-08-05T12:20:39.205Z,33.30
2022-08-05T12:23:12.290Z,33.80
2022-08-05T12:25:58.754Z,34.40
2022-08-05T12:28:33.221Z,34.40
2022-08-05T12:31:02.207Z,34.10
2022-08-05T12:33:36.554Z,34.00
2022-08-05T12:36:07.215Z,34.00
2022-08-05T12:38:41.843Z,34.40
2022-08-05T12:41:13.157Z,34.10
2022-08-05T12:43:50.991Z,33.80
2022-08-05T12:46:29.296Z,33.10
2022-08-05T12:49:13.566Z,32.90
2022-08-05T12:52:13.618Z,33.00
2022-08-05T12:54:33.415Z,33.20
2022-08-05T12:57:04.772Z,33.60
2022-08-05T13:01:57.149Z,34.40
2022-08-05T13:02:39.870Z,34.30
2022-08-05T13:05:07.121Z,34.80
2022-08-05T13:07:59.146Z,35.20
2022-08-05T13:10:20.720Z,35.80
2022-08-05T13:12:57.455Z,35.90
2022-08-05T13:15:42.252Z,35.90
2022-08-05T13:18:19.576Z,35.30
2022-08-05T13:20:49.311Z,34.20
2022-08-05T13:23:18.200Z,33.20
2022-08-05T13:25:59.321Z,32.70
2022-08-05T13:28:28.297Z,32.60
2022-08-05T13:30:55.493Z,32.40
2022-08-05T13:34:21.911Z,32.30
2022-08-05T13:36:10.945Z,32.10
2022-08-05T13:38:42.191Z,32.00
2022-08-05T13:41:12.383Z,31.70
2022-08-05T13:43:45.689Z,31.70
2022-08-05T13:46:43.767Z,31.70
2022-08-05T13:49:10.343Z,31.80
2022-08-05T13:51:40.818Z,32.10
2022-08-05T13:54:12.676Z,32.50
2022-08-05T13:56:45.028Z,32.70
2022-08-05T13:59:24.375Z,33.00
2022-08-05T14:01:59.123Z,33.60
2022-08-05T14:04:55.139Z,34.10
2022-08-05T14:08:00.327Z,34.20
2022-08-05T14:10:14.004Z,34.40
2022-08-05T14:12:48.804Z,34.20
2022-08-05T14:16:09.043Z,34.10
2022-08-05T14:18:03.851Z,34.50
2022-08-05T14:20:30.947Z,35.00
2022-08-05T14:22:58.471Z,34.80
2022-08-05T14:25:27.966Z,35.10
2022-08-05T14:27:55.698Z,34.70
2022-08-05T14:30:22.688Z,34.80
2022-08-05T14:32:53.290Z,35.30
2022-08-05T14:35:20.639Z,35.60
2022-08-05T14:37:53.557Z,35.90
2022-08-05T14:40:24.167Z,35.60
2022-08-05T14:42:51.568Z,35.50
2022-08-05T14:45:18.778Z,35.90
2022-08-05T14:48:03.318Z,36.60
2022-08-05T14:50:32.771Z,36.70
2022-08-05T14:53:03.095Z,36.60
2022-08-05T14:55:39.297Z,36.40
2022-08-05T14:58:11.907Z,36.60
2022-08-05T15:00:59.446Z,36.70
2022-08-05T15:03:33.573Z,36.70
2022-08-05T15:06:07.454Z,36.60
2022-08-05T15:09:01.226Z,36.80
2022-08-05T15:11:51.276Z,36.90
2022-08-05T15:14:33.623Z,36.60
2022-08-05T15:17:01.655Z,35.90
2022-08-05T15:19:30.747Z,35.20
2022-08-05T15:21:58.771Z,34.90
2022-08-05T15:24:27.540Z,34.80
2022-08-05T15:26:56.011Z,34.70
2022-08-05T15:29:23.928Z,34.50
2022-08-05T15:32:02.125Z,34.30
2022-08-05T15:34:33.066Z,34.10
2022-08-05T15:37:06.081Z,33.90
2022-08-05T15:41:04.618Z,33.60
2022-08-05T15:42:56.751Z,32.80
2022-08-05T15:45:07.825Z,32.20
2022-08-05T15:47:37.219Z,31.80
2022-08-05T15:50:07.243Z,31.30
2022-08-05T15:52:54.759Z,31.00
2022-08-05T15:55:24.591Z,30.70
2022-08-05T15:58:08.352Z,30.40
2022-08-05T16:00:50.894Z,30.40
2022-08-05T16:03:21.954Z,30.30
2022-08-05T16:05:52.564Z,30.10
2022-08-05T16:08:19.603Z,30.00
2022-08-05T16:10:46.766Z,29.90
2022-08-05T16:13:23.517Z,29.60
2022-08-05T16:15:51.918Z,29.50
2022-08-05T16:18:19.140Z,29.40
2022-08-05T16:20:46.470Z,29.20
2022-08-05T16:23:13.278Z,28.90
2022-08-05T16:25:40.195Z,28.80
2022-08-05T16:28:09.448Z,28.90
2022-08-05T16:30:37.346Z,29.00
2022-08-05T16:33:04.311Z,29.10
2022-08-05T16:35:32.400Z,28.90
2022-08-05T16:38:18.516Z,28.70
2022-08-05T16:40:59.556Z,28.40
2022-08-05T16:43:29.130Z,28.30
2022-08-05T16:46:04.888Z,28.10
2022-08-05T16:48:35.917Z,27.90
2022-08-05T16:51:03.846Z,27.90
2022-08-05T16:54:06.167Z,27.90
2022-08-05T16:56:29.353Z,27.70
2022-08-05T16:58:57.283Z,27.70
2022-08-05T17:01:24.568Z,27.70
2022-08-05T17:03:51.973Z,27.50
2022-08-05T17:06:19.211Z,27.40
2022-08-05T17:08:52.688Z,27.30
2022-08-05T17:11:20.621Z,27.30
2022-08-05T17:13:50.704Z,27.20
2022-08-05T17:16:33.668Z,27.20
2022-08-05T17:19:02.952Z,27.10
2022-08-05T17:21:36.002Z,26.90
2022-08-05T17:24:30.312Z,26.80
2022-08-05T17:26:53.621Z,26.60
2022-08-05T17:29:32.857Z,26.50
2022-08-05T17:32:06.997Z,26.40
2022-08-05T17:34:35.833Z,26.30
2022-08-05T17:37:04.678Z,26.00
2022-08-05T17:39:55.040Z,26.00
2022-08-05T17:42:28.925Z,25.90
2022-08-05T17:44:57.142Z,25.80
2022-08-05T17:47:24.184Z,25.80
2022-08-05T17:50:03.993Z,25.80
2022-08-05T17:52:52.626Z,25.80
2022-08-05T17:55:22.146Z,25.60
2022-08-05T17:57:50.256Z,25.50
2022-08-05T18:00:18.553Z,25.30
2022-08-05T18:02:47.620Z,25.20
2022-08-05T18:05:16.910Z,25.10
2022-08-05T18:07:44.618Z,25.00
2022-08-05T18:10:20.356Z,25.00
2022-08-05T18:12:48.643Z,25.00
2022-08-05T18:15:15.374Z,25.00
2022-08-05T18:18:01.554Z,24.80
2022-08-05T18:20:29.487Z,24.80
2022-08-05T18:23:11.455Z,24.80
2022-08-05T18:25:39.489Z,24.70
2022-08-05T18:28:10.759Z,24.70
2022-08-05T18:30:39.253Z,24.60
2022-08-05T18:33:08.416Z,24.50
2022-08-05T18:36:00.937Z,24.50
2022-08-05T18:38:25.955Z,24.50
2022-08-05T18:41:55.145Z,24.50
2022-08-05T18:43:43.259Z,24.50
2022-08-05T18:46:19.812Z,24.50
2022-08-05T18:48:51.867Z,24.50
2022-08-05T18:52:05.108Z,24.60
2022-08-05T18:54:25.606Z,24.60
2022-08-05T18:56:52.306Z,24.50
2022-08-05T18:59:43.559Z,24.60
2022-08-05T19:02:11.463Z,24.60
2022-08-05T19:05:01.784Z,24.70
2022-08-05T19:07:46.725Z,24.70
2022-08-05T19:10:14.114Z,24.60
2022-08-05T19:12:40.818Z,24.70
2022-08-05T19:15:24.998Z,24.60
2022-08-05T19:18:08.273Z,24.60
2022-08-05T19:20:37.355Z,24.50
2022-08-05T19:23:08.752Z,24.40
2022-08-05T19:26:01.878Z,24.20
2022-08-05T19:28:30.923Z,24.10
2022-08-05T19:30:57.752Z,24.00
2022-08-05T19:33:33.963Z,24.00
2022-08-05T19:36:06.277Z,24.00
2022-08-05T19:38:36.898Z,24.00
2022-08-05T19:41:07.136Z,24.00
2022-08-05T19:44:06.548Z,24.10
2022-08-05T19:46:29.605Z,24.00
2022-08-05T19:49:02.964Z,23.80
2022-08-05T19:52:06.062Z,23.70
2022-08-05T19:54:27.225Z,23.60
2022-08-05T19:56:58.543Z,23.20
2022-08-05T19:59:54.669Z,22.90
2022-08-05T20:02:12.888Z,22.60
2022-08-05T20:04:42.967Z,22.40
2022-08-05T20:07:13.156Z,22.20
2022-08-05T20:09:53.669Z,22.10
2022-08-05T20:12:23.392Z,21.80
2022-08-05T20:14:52.320Z,21.50
2022-08-05T20:17:19.877Z,21.30
2022-08-05T20:19:51.124Z,21.20
2022-08-05T20:22:24.166Z,21.10
2022-08-05T20:24:53.972Z,21.10
2022-08-05T20:27:21.089Z,21.10
2022-08-05T20:29:58.480Z,21.10
2022-08-05T20:32:26.370Z,21.10
2022-08-05T20:34:53.480Z,21.10
2022-08-05T20:38:04.803Z,21.10
2022-08-05T20:40:07.499Z,21.10
2022-08-05T20:42:35.490Z,21.10
2022-08-05T20:45:02.941Z,21.00
2022-08-05T20:47:32.233Z,21.00
2022-08-05T20:50:02.142Z,20.90
2022-08-05T20:52:30.012Z,20.90
2022-08-05T20:55:55.733Z,20.80
2022-08-05T20:57:47.380Z,20.70
2022-08-05T21:00:40.235Z,20.60
2022-08-05T21:03:08.042Z,20.70
2022-08-05T21:05:38.319Z,20.60
2022-08-05T21:08:15.235Z,20.40
2022-08-05T21:10:48.481Z,20.30
2022-08-05T21:13:37.795Z,20.30
2022-08-05T21:16:03.564Z,20.40
2022-08-05T21:18:30.507Z,20.40
2022-08-05T21:20:57.535Z,20.50
2022-08-05T21:23:25.015Z,20.60
2022-08-05T21:25:51.810Z,20.60
2022-08-05T21:28:23.628Z,20.50
2022-08-05T21:30:50.833Z,20.60
2022-08-05T21:33:22.528Z,20.60
2022-08-05T21:35:58.529Z,20.60
2022-08-05T21:38:26.524Z,20.70
2022-08-05T21:40:53.199Z,20.60
2022-08-05T21:43:24.445Z,20.60
2022-08-05T21:45:57.882Z,20.50
2022-08-05T21:48:27.600Z,20.50
2022-08-05T21:50:54.631Z,20.40
2022-08-05T21:53:21.585Z,20.40
2022-08-05T21:56:06.334Z,20.40
2022-08-05T21:58:42.152Z,20.30
2022-08-05T22:01:10.700Z,20.10
2022-08-05T22:03:48.878Z,20.10
2022-08-05T22:06:22.327Z,20.10
2022-08-05T22:08:51.848Z,20.10
2022-08-05T22:11:19.199Z,20.30
2022-08-05T22:14:19.870Z,20.30
2022-08-05T22:16:51.969Z,20.10
2022-08-05T22:20:00.976Z,20.00
2022-08-05T22:22:07.512Z,20.00
2022-08-05T22:24:56.004Z,20.00
2022-08-05T22:28:05.034Z,20.00
2022-08-05T22:30:35.162Z,20.00
2022-08-05T22:33:03.395Z,20.00
2022-08-05T22:35:31.047Z,19.80
2022-08-05T22:38:05.524Z,19.60
2022-08-05T22:40:32.277Z,19.50
2022-08-05T22:42:59.754Z,19.60
2022-08-05T22:45:26.545Z,19.80
2022-08-05T22:47:55.269Z,19.80
2022-08-05T22:50:27.831Z,20.00
2022-08-05T22:52:55.000Z,20.00
2022-08-05T22:55:22.612Z,20.00
2022-08-05T22:57:50.123Z,20.10
2022-08-05T23:00:18.315Z,20.00
2022-08-05T23:02:48.142Z,20.00
2022-08-05T23:05:15.437Z,19.90
2022-08-05T23:07:44.979Z,19.80
2022-08-05T23:10:16.186Z,19.80
2022-08-05T23:12:46.382Z,19.80
2022-08-05T23:15:13.621Z,19.70
2022-08-05T23:18:00.584Z,19.80
2022-08-05T23:20:29.644Z,19.70
2022-08-05T23:22:56.623Z,19.70
2022-08-05T23:25:54.917Z,19.80
2022-08-05T23:28:12.431Z,19.70
2022-08-05T23:30:43.753Z,19.70
2022-08-05T23:33:16.486Z,19.60
2022-08-05T23:35:49.053Z,19.40
2022-08-05T23:38:16.253Z,19.30
2022-08-05T23:40:49.829Z,19.20
2022-08-05T23:43:24.965Z,19.00
2022-08-05T23:46:19.953Z,19.10
2022-08-05T23:49:01.076Z,19.20
2022-08-05T23:51:54.946Z,19.00
2022-08-05T23:54:25.685Z,18.80
2022-08-05T23:56:53.861Z,18.70
2022-08-05T23:59:20.513Z,18.80
